sensor_id;sensor_type;location;lat;lon;timestamp;P1;durP1;ratioP1;P2;durP2;ratioP2
16667;SDS011;8447;52.630;4.734;2022-11-24T00:01:24;10.80;;;2.20;;
16667;SDS011;8447;52.630;4.734;2022-11-24T00:03:51;8.30;;;2.33;;
16667;SDS011;8447;52.630;4.734;2022-11-24T00:06:18;9.00;;;2.57;;
16667;SDS011;8447;52.630;4.734;2022-11-24T00:08:45;13.13;;;3.33;;
16667;SDS011;8447;52.630;4.734;2022-11-24T00:11:13;13.43;;;2.23;;
16667;SDS011;8447;52.630;4.734;2022-11-24T00:13:39;9.67;;;2.17;;
16667;SDS011;8447;52.630;4.734;2022-11-24T00:16:07;10.77;;;2.37;;
16667;SDS011;8447;52.630;4.734;2022-11-24T00:18:33;11.37;;;2.07;;
16667;SDS011;8447;52.630;4.734;2022-11-24T00:21:00;10.93;;;2.27;;
16667;SDS011;8447;52.630;4.734;2022-11-24T00:23:26;8.27;;;2.70;;
16667;SDS011;8447;52.630;4.734;2022-11-24T00:25:52;3.30;;;1.37;;
16667;SDS011;8447;52.630;4.734;2022-11-24T00:28:20;14.03;;;2.43;;
16667;SDS011;8447;52.630;4.734;2022-11-24T00:30:46;12.90;;;2.53;;
16667;SDS011;8447;52.630;4.734;2022-11-24T00:33:13;10.80;;;2.23;;
16667;SDS011;8447;52.630;4.734;2022-11-24T00:35:39;9.97;;;2.03;;
16667;SDS011;8447;52.630;4.734;2022-11-24T00:38:05;6.97;;;1.87;;
16667;SDS011;8447;52.630;4.734;2022-11-24T00:40:32;12.70;;;2.70;;
16667;SDS011;8447;52.630;4.734;2022-11-24T00:42:58;11.27;;;2.37;;
16667;SDS011;8447;52.630;4.734;2022-11-24T00:45:26;12.50;;;3.03;;
16667;SDS011;8447;52.630;4.734;2022-11-24T00:47:53;14.00;;;2.03;;
16667;SDS011;8447;52.630;4.734;2022-11-24T00:50:19;12.43;;;2.20;;
16667;SDS011;8447;52.630;4.734;2022-11-24T00:52:46;12.93;;;2.53;;
16667;SDS011;8447;52.630;4.734;2022-11-24T00:55:12;14.17;;;2.77;;
16667;SDS011;8447;52.630;4.734;2022-11-24T00:57:39;9.27;;;1.87;;
16667;SDS011;8447;52.630;4.734;2022-11-24T01:00:06;8.73;;;1.73;;
16667;SDS011;8447;52.630;4.734;2022-11-24T01:02:34;6.90;;;2.00;;
16667;SDS011;8447;52.630;4.734;2022-11-24T01:05:00;6.97;;;1.90;;
16667;SDS011;8447;52.630;4.734;2022-11-24T01:07:27;10.00;;;1.83;;
16667;SDS011;8447;52.630;4.734;2022-11-24T01:09:53;9.43;;;2.40;;
16667;SDS011;8447;52.630;4.734;2022-11-24T01:12:20;6.73;;;1.33;;
16667;SDS011;8447;52.630;4.734;2022-11-24T01:14:46;5.80;;;1.20;;
16667;SDS011;8447;52.630;4.734;2022-11-24T01:17:12;9.77;;;1.67;;
16667;SDS011;8447;52.630;4.734;2022-11-24T01:19:40;8.80;;;2.17;;
16667;SDS011;8447;52.630;4.734;2022-11-24T01:22:06;7.17;;;1.70;;
16667;SDS011;8447;52.630;4.734;2022-11-24T01:24:33;9.03;;;1.70;;
16667;SDS011;8447;52.630;4.734;2022-11-24T01:26:59;11.73;;;1.87;;
16667;SDS011;8447;52.630;4.734;2022-11-24T01:29:25;11.40;;;2.10;;
16667;SDS011;8447;52.630;4.734;2022-11-24T01:31:52;6.70;;;1.73;;
16667;SDS011;8447;52.630;4.734;2022-11-24T01:34:18;11.33;;;2.10;;
16667;SDS011;8447;52.630;4.734;2022-11-24T01:36:46;7.00;;;1.97;;
16667;SDS011;8447;52.630;4.734;2022-11-24T01:39:12;7.97;;;2.17;;
16667;SDS011;8447;52.630;4.734;2022-11-24T01:41:39;11.40;;;2.33;;
16667;SDS011;8447;52.630;4.734;2022-11-24T01:44:18;10.00;;;2.00;;
16667;SDS011;8447;52.630;4.734;2022-11-24T01:46:45;6.13;;;1.30;;
16667;SDS011;8447;52.630;4.734;2022-11-24T01:49:13;11.60;;;2.33;;
16667;SDS011;8447;52.630;4.734;2022-11-24T01:51:42;10.03;;;2.60;;
16667;SDS011;8447;52.630;4.734;2022-11-24T01:54:11;7.13;;;1.73;;
16667;SDS011;8447;52.630;4.734;2022-11-24T01:56:39;7.33;;;1.87;;
16667;SDS011;8447;52.630;4.734;2022-11-24T01:59:07;8.87;;;2.03;;
16667;SDS011;8447;52.630;4.734;2022-11-24T02:01:35;8.03;;;2.00;;
16667;SDS011;8447;52.630;4.734;2022-11-24T02:04:02;8.47;;;2.13;;
16667;SDS011;8447;52.630;4.734;2022-11-24T02:06:30;10.10;;;2.40;;
16667;SDS011;8447;52.630;4.734;2022-11-24T02:08:59;7.17;;;1.70;;
16667;SDS011;8447;52.630;4.734;2022-11-24T02:11:29;8.80;;;1.93;;
16667;SDS011;8447;52.630;4.734;2022-11-24T02:13:58;13.67;;;1.97;;
16667;SDS011;8447;52.630;4.734;2022-11-24T02:16:25;9.67;;;1.83;;
16667;SDS011;8447;52.630;4.734;2022-11-24T02:18:51;9.13;;;2.10;;
16667;SDS011;8447;52.630;4.734;2022-11-24T02:21:18;10.03;;;2.43;;
16667;SDS011;8447;52.630;4.734;2022-11-24T02:23:47;9.67;;;1.77;;
16667;SDS011;8447;52.630;4.734;2022-11-24T02:26:18;9.87;;;1.60;;
16667;SDS011;8447;52.630;4.734;2022-11-24T02:28:47;5.70;;;1.50;;
16667;SDS011;8447;52.630;4.734;2022-11-24T02:31:14;10.40;;;2.00;;
16667;SDS011;8447;52.630;4.734;2022-11-24T02:33:40;7.80;;;1.90;;
16667;SDS011;8447;52.630;4.734;2022-11-24T02:36:07;9.20;;;2.30;;
16667;SDS011;8447;52.630;4.734;2022-11-24T02:38:33;4.93;;;1.37;;
16667;SDS011;8447;52.630;4.734;2022-11-24T02:41:01;9.13;;;1.63;;
16667;SDS011;8447;52.630;4.734;2022-11-24T02:43:29;11.23;;;2.13;;
16667;SDS011;8447;52.630;4.734;2022-11-24T02:45:57;9.00;;;2.10;;
16667;SDS011;8447;52.630;4.734;2022-11-24T02:48:23;14.17;;;2.40;;
16667;SDS011;8447;52.630;4.734;2022-11-24T02:50:50;13.80;;;3.40;;
16667;SDS011;8447;52.630;4.734;2022-11-24T02:53:16;13.10;;;3.10;;
16667;SDS011;8447;52.630;4.734;2022-11-24T02:55:42;11.77;;;2.40;;
16667;SDS011;8447;52.630;4.734;2022-11-24T02:58:09;10.93;;;2.83;;
16667;SDS011;8447;52.630;4.734;2022-11-24T03:00:35;8.47;;;1.67;;
16667;SDS011;8447;52.630;4.734;2022-11-24T03:03:03;7.97;;;2.07;;
16667;SDS011;8447;52.630;4.734;2022-11-24T03:05:29;15.63;;;2.47;;
16667;SDS011;8447;52.630;4.734;2022-11-24T03:07:56;7.60;;;2.30;;
16667;SDS011;8447;52.630;4.734;2022-11-24T03:10:22;10.73;;;2.47;;
16667;SDS011;8447;52.630;4.734;2022-11-24T03:12:49;12.50;;;2.27;;
16667;SDS011;8447;52.630;4.734;2022-11-24T03:15:15;5.70;;;1.57;;
16667;SDS011;8447;52.630;4.734;2022-11-24T03:17:42;10.40;;;1.80;;
16667;SDS011;8447;52.630;4.734;2022-11-24T03:20:10;9.90;;;1.50;;
16667;SDS011;8447;52.630;4.734;2022-11-24T03:22:36;10.10;;;2.07;;
16667;SDS011;8447;52.630;4.734;2022-11-24T03:25:03;8.70;;;2.03;;
16667;SDS011;8447;52.630;4.734;2022-11-24T03:27:29;9.87;;;1.73;;
16667;SDS011;8447;52.630;4.734;2022-11-24T03:29:56;8.27;;;1.87;;
16667;SDS011;8447;52.630;4.734;2022-11-24T03:32:23;11.13;;;1.87;;
16667;SDS011;8447;52.630;4.734;2022-11-24T03:34:49;2.50;;;0.97;;
16667;SDS011;8447;52.630;4.734;2022-11-24T03:37:17;5.90;;;1.70;;
16667;SDS011;8447;52.630;4.734;2022-11-24T03:39:43;4.70;;;1.20;;
16667;SDS011;8447;52.630;4.734;2022-11-24T03:42:09;7.70;;;1.70;;
16667;SDS011;8447;52.630;4.734;2022-11-24T03:44:36;9.17;;;1.70;;
16667;SDS011;8447;52.630;4.734;2022-11-24T03:47:02;10.17;;;1.47;;
16667;SDS011;8447;52.630;4.734;2022-11-24T03:49:28;8.73;;;1.67;;
16667;SDS011;8447;52.630;4.734;2022-11-24T03:51:55;2.20;;;1.20;;
16667;SDS011;8447;52.630;4.734;2022-11-24T03:54:23;5.43;;;2.23;;
16667;SDS011;8447;52.630;4.734;2022-11-24T03:56:49;7.77;;;1.13;;
16667;SDS011;8447;52.630;4.734;2022-11-24T03:59:15;6.00;;;1.00;;
16667;SDS011;8447;52.630;4.734;2022-11-24T04:01:43;5.70;;;1.17;;
16667;SDS011;8447;52.630;4.734;2022-11-24T04:04:09;10.53;;;1.60;;
16667;SDS011;8447;52.630;4.734;2022-11-24T04:06:36;11.13;;;1.83;;
16667;SDS011;8447;52.630;4.734;2022-11-24T04:09:02;10.20;;;1.97;;
16667;SDS011;8447;52.630;4.734;2022-11-24T04:11:30;7.17;;;1.57;;
16667;SDS011;8447;52.630;4.734;2022-11-24T04:14:14;9.43;;;1.53;;
16667;SDS011;8447;52.630;4.734;2022-11-24T04:16:42;9.17;;;1.77;;
16667;SDS011;8447;52.630;4.734;2022-11-24T04:19:08;8.43;;;1.93;;
16667;SDS011;8447;52.630;4.734;2022-11-24T04:21:35;6.67;;;1.63;;
16667;SDS011;8447;52.630;4.734;2022-11-24T04:24:01;8.33;;;1.63;;
16667;SDS011;8447;52.630;4.734;2022-11-24T04:26:27;8.07;;;1.60;;
16667;SDS011;8447;52.630;4.734;2022-11-24T04:28:55;8.83;;;1.97;;
16667;SDS011;8447;52.630;4.734;2022-11-24T04:31:21;9.83;;;1.37;;
16667;SDS011;8447;52.630;4.734;2022-11-24T04:33:48;8.67;;;2.03;;
16667;SDS011;8447;52.630;4.734;2022-11-24T04:36:14;11.03;;;1.90;;
16667;SDS011;8447;52.630;4.734;2022-11-24T04:38:40;11.80;;;2.17;;
16667;SDS011;8447;52.630;4.734;2022-11-24T04:41:07;6.33;;;1.40;;
16667;SDS011;8447;52.630;4.734;2022-11-24T04:43:33;7.00;;;1.57;;
16667;SDS011;8447;52.630;4.734;2022-11-24T04:46:01;6.77;;;1.40;;
16667;SDS011;8447;52.630;4.734;2022-11-24T04:48:28;4.70;;;0.93;;
16667;SDS011;8447;52.630;4.734;2022-11-24T04:50:54;7.80;;;1.43;;
16667;SDS011;8447;52.630;4.734;2022-11-24T04:53:21;5.60;;;1.00;;
16667;SDS011;8447;52.630;4.734;2022-11-24T04:55:47;13.60;;;1.60;;
16667;SDS011;8447;52.630;4.734;2022-11-24T04:58:13;10.27;;;1.50;;
16667;SDS011;8447;52.630;4.734;2022-11-24T05:00:40;6.70;;;1.13;;
16667;SDS011;8447;52.630;4.734;2022-11-24T05:03:07;6.60;;;1.30;;
16667;SDS011;8447;52.630;4.734;2022-11-24T05:05:34;5.97;;;1.10;;
16667;SDS011;8447;52.630;4.734;2022-11-24T05:08:00;6.73;;;1.30;;
16667;SDS011;8447;52.630;4.734;2022-11-24T05:10:26;6.33;;;1.03;;
16667;SDS011;8447;52.630;4.734;2022-11-24T05:13:02;7.60;;;1.50;;
16667;SDS011;8447;52.630;4.734;2022-11-24T05:15:29;8.77;;;1.53;;
16667;SDS011;8447;52.630;4.734;2022-11-24T05:17:55;11.33;;;1.23;;
16667;SDS011;8447;52.630;4.734;2022-11-24T05:20:23;12.80;;;1.67;;
16667;SDS011;8447;52.630;4.734;2022-11-24T05:22:50;5.80;;;1.00;;
16667;SDS011;8447;52.630;4.734;2022-11-24T05:25:16;16.80;;;1.60;;
16667;SDS011;8447;52.630;4.734;2022-11-24T05:27:43;6.63;;;0.97;;
16667;SDS011;8447;52.630;4.734;2022-11-24T05:30:09;7.83;;;1.33;;
16667;SDS011;8447;52.630;4.734;2022-11-24T05:32:36;6.37;;;0.90;;
16667;SDS011;8447;52.630;4.734;2022-11-24T05:35:02;0.50;;;0.40;;
16667;SDS011;8447;52.630;4.734;2022-11-24T05:37:30;7.27;;;1.47;;
16667;SDS011;8447;52.630;4.734;2022-11-24T05:39:56;7.90;;;1.87;;
16667;SDS011;8447;52.630;4.734;2022-11-24T05:42:23;7.70;;;1.33;;
16667;SDS011;8447;52.630;4.734;2022-11-24T05:45:08;3.43;;;0.90;;
16667;SDS011;8447;52.630;4.734;2022-11-24T05:47:35;2.13;;;1.00;;
16667;SDS011;8447;52.630;4.734;2022-11-24T05:50:02;9.63;;;1.77;;
16667;SDS011;8447;52.630;4.734;2022-11-24T05:52:30;5.97;;;1.30;;
16667;SDS011;8447;52.630;4.734;2022-11-24T05:54:56;3.80;;;1.30;;
16667;SDS011;8447;52.630;4.734;2022-11-24T05:57:22;5.37;;;1.20;;
16667;SDS011;8447;52.630;4.734;2022-11-24T05:59:49;7.90;;;1.40;;
16667;SDS011;8447;52.630;4.734;2022-11-24T06:02:15;16.07;;;1.57;;
16667;SDS011;8447;52.630;4.734;2022-11-24T06:04:42;10.20;;;1.47;;
16667;SDS011;8447;52.630;4.734;2022-11-24T06:07:08;8.57;;;1.57;;
16667;SDS011;8447;52.630;4.734;2022-11-24T06:09:36;3.57;;;1.27;;
16667;SDS011;8447;52.630;4.734;2022-11-24T06:12:02;6.70;;;1.00;;
16667;SDS011;8447;52.630;4.734;2022-11-24T06:14:29;2.23;;;0.60;;
16667;SDS011;8447;52.630;4.734;2022-11-24T06:16:55;4.40;;;0.87;;
16667;SDS011;8447;52.630;4.734;2022-11-24T06:19:22;4.87;;;0.80;;
16667;SDS011;8447;52.630;4.734;2022-11-24T06:21:48;7.20;;;0.97;;
16667;SDS011;8447;52.630;4.734;2022-11-24T06:24:14;3.57;;;0.97;;
16667;SDS011;8447;52.630;4.734;2022-11-24T06:26:42;4.80;;;0.80;;
16667;SDS011;8447;52.630;4.734;2022-11-24T06:29:08;1.57;;;0.50;;
16667;SDS011;8447;52.630;4.734;2022-11-24T06:31:35;4.13;;;1.00;;
16667;SDS011;8447;52.630;4.734;2022-11-24T06:34:01;3.80;;;1.00;;
16667;SDS011;8447;52.630;4.734;2022-11-24T06:36:30;3.33;;;0.70;;
16667;SDS011;8447;52.630;4.734;2022-11-24T06:38:56;3.63;;;0.60;;
16667;SDS011;8447;52.630;4.734;2022-11-24T06:41:23;3.60;;;0.80;;
16667;SDS011;8447;52.630;4.734;2022-11-24T06:43:50;1.53;;;0.70;;
16667;SDS011;8447;52.630;4.734;2022-11-24T06:46:17;3.43;;;1.10;;
16667;SDS011;8447;52.630;4.734;2022-11-24T06:48:43;5.70;;;1.13;;
16667;SDS011;8447;52.630;4.734;2022-11-24T06:51:10;4.77;;;0.80;;
16667;SDS011;8447;52.630;4.734;2022-11-24T06:53:38;6.30;;;0.93;;
16667;SDS011;8447;52.630;4.734;2022-11-24T06:56:05;4.87;;;1.17;;
16667;SDS011;8447;52.630;4.734;2022-11-24T06:58:31;3.73;;;0.80;;
16667;SDS011;8447;52.630;4.734;2022-11-24T07:00:59;11.17;;;1.50;;
16667;SDS011;8447;52.630;4.734;2022-11-24T07:03:26;2.67;;;0.70;;
16667;SDS011;8447;52.630;4.734;2022-11-24T07:05:54;7.50;;;1.33;;
16667;SDS011;8447;52.630;4.734;2022-11-24T07:08:22;5.53;;;1.20;;
16667;SDS011;8447;52.630;4.734;2022-11-24T07:10:48;6.57;;;1.00;;
16667;SDS011;8447;52.630;4.734;2022-11-24T07:13:16;4.87;;;1.20;;
16667;SDS011;8447;52.630;4.734;2022-11-24T07:15:42;8.30;;;1.40;;
16667;SDS011;8447;52.630;4.734;2022-11-24T07:18:10;6.07;;;1.83;;
16667;SDS011;8447;52.630;4.734;2022-11-24T07:20:36;7.43;;;1.27;;
16667;SDS011;8447;52.630;4.734;2022-11-24T07:23:03;5.70;;;1.13;;
16667;SDS011;8447;52.630;4.734;2022-11-24T07:25:29;8.57;;;1.63;;
16667;SDS011;8447;52.630;4.734;2022-11-24T07:27:56;7.90;;;1.20;;
16667;SDS011;8447;52.630;4.734;2022-11-24T07:30:22;6.10;;;1.57;;
16667;SDS011;8447;52.630;4.734;2022-11-24T07:32:49;9.80;;;1.47;;
16667;SDS011;8447;52.630;4.734;2022-11-24T07:35:16;9.50;;;1.73;;
16667;SDS011;8447;52.630;4.734;2022-11-24T07:37:43;6.30;;;0.90;;
16667;SDS011;8447;52.630;4.734;2022-11-24T07:40:10;6.47;;;1.13;;
16667;SDS011;8447;52.630;4.734;2022-11-24T07:42:36;5.33;;;1.30;;
16667;SDS011;8447;52.630;4.734;2022-11-24T07:45:03;8.20;;;1.43;;
16667;SDS011;8447;52.630;4.734;2022-11-24T07:47:29;10.37;;;1.33;;
16667;SDS011;8447;52.630;4.734;2022-11-24T07:49:55;7.67;;;1.53;;
16667;SDS011;8447;52.630;4.734;2022-11-24T07:52:23;3.70;;;0.87;;
16667;SDS011;8447;52.630;4.734;2022-11-24T07:54:50;9.37;;;1.20;;
16667;SDS011;8447;52.630;4.734;2022-11-24T07:57:17;9.67;;;1.40;;
16667;SDS011;8447;52.630;4.734;2022-11-24T07:59:43;7.47;;;1.10;;
16667;SDS011;8447;52.630;4.734;2022-11-24T08:02:10;4.67;;;1.23;;
16667;SDS011;8447;52.630;4.734;2022-11-24T08:04:37;5.70;;;1.03;;
16667;SDS011;8447;52.630;4.734;2022-11-24T08:07:03;7.73;;;1.33;;
16667;SDS011;8447;52.630;4.734;2022-11-24T08:09:31;3.00;;;1.20;;
16667;SDS011;8447;52.630;4.734;2022-11-24T08:11:57;8.40;;;1.80;;
16667;SDS011;8447;52.630;4.734;2022-11-24T08:14:23;9.47;;;1.53;;
16667;SDS011;8447;52.630;4.734;2022-11-24T08:16:50;10.87;;;2.60;;
16667;SDS011;8447;52.630;4.734;2022-11-24T08:19:16;7.73;;;1.67;;
16667;SDS011;8447;52.630;4.734;2022-11-24T08:21:42;7.27;;;1.70;;
16667;SDS011;8447;52.630;4.734;2022-11-24T08:24:09;8.93;;;2.53;;
16667;SDS011;8447;52.630;4.734;2022-11-24T08:26:39;4.30;;;1.40;;
16667;SDS011;8447;52.630;4.734;2022-11-24T08:29:05;5.77;;;1.43;;
16667;SDS011;8447;52.630;4.734;2022-11-24T08:31:32;10.03;;;1.50;;
16667;SDS011;8447;52.630;4.734;2022-11-24T08:34:00;7.03;;;1.63;;
16667;SDS011;8447;52.630;4.734;2022-11-24T08:36:26;5.33;;;1.43;;
16667;SDS011;8447;52.630;4.734;2022-11-24T08:38:53;6.00;;;1.80;;
16667;SDS011;8447;52.630;4.734;2022-11-24T08:41:19;11.27;;;1.77;;
16667;SDS011;8447;52.630;4.734;2022-11-24T08:43:47;9.73;;;1.47;;
16667;SDS011;8447;52.630;4.734;2022-11-24T08:46:14;3.47;;;1.00;;
16667;SDS011;8447;52.630;4.734;2022-11-24T08:48:41;5.50;;;1.43;;
16667;SDS011;8447;52.630;4.734;2022-11-24T08:51:08;10.00;;;1.90;;
16667;SDS011;8447;52.630;4.734;2022-11-24T08:53:35;6.90;;;1.70;;
16667;SDS011;8447;52.630;4.734;2022-11-24T08:56:02;7.13;;;1.70;;
16667;SDS011;8447;52.630;4.734;2022-11-24T08:58:29;4.27;;;1.37;;
16667;SDS011;8447;52.630;4.734;2022-11-24T09:01:01;5.93;;;1.60;;
16667;SDS011;8447;52.630;4.734;2022-11-24T09:03:28;4.37;;;1.27;;
16667;SDS011;8447;52.630;4.734;2022-11-24T09:05:54;6.63;;;1.50;;
16667;SDS011;8447;52.630;4.734;2022-11-24T09:08:21;10.10;;;1.67;;
16667;SDS011;8447;52.630;4.734;2022-11-24T09:10:47;4.57;;;1.10;;
16667;SDS011;8447;52.630;4.734;2022-11-24T09:13:13;4.57;;;1.23;;
16667;SDS011;8447;52.630;4.734;2022-11-24T09:15:40;8.97;;;1.73;;
16667;SDS011;8447;52.630;4.734;2022-11-24T09:18:07;5.77;;;1.63;;
16667;SDS011;8447;52.630;4.734;2022-11-24T09:20:34;4.07;;;1.20;;
16667;SDS011;8447;52.630;4.734;2022-11-24T09:23:00;5.83;;;1.70;;
16667;SDS011;8447;52.630;4.734;2022-11-24T09:25:26;8.37;;;1.80;;
16667;SDS011;8447;52.630;4.734;2022-11-24T09:27:53;7.50;;;1.57;;
16667;SDS011;8447;52.630;4.734;2022-11-24T09:30:20;2.40;;;1.17;;
16667;SDS011;8447;52.630;4.734;2022-11-24T09:32:47;8.97;;;1.83;;
16667;SDS011;8447;52.630;4.734;2022-11-24T09:35:15;5.17;;;1.47;;
16667;SDS011;8447;52.630;4.734;2022-11-24T09:37:41;2.90;;;1.10;;
16667;SDS011;8447;52.630;4.734;2022-11-24T09:40:11;7.17;;;1.30;;
16667;SDS011;8447;52.630;4.734;2022-11-24T09:42:38;9.67;;;1.63;;
16667;SDS011;8447;52.630;4.734;2022-11-24T09:45:13;10.13;;;1.93;;
16667;SDS011;8447;52.630;4.734;2022-11-24T09:47:44;4.40;;;1.17;;
16667;SDS011;8447;52.630;4.734;2022-11-24T09:50:12;10.67;;;2.50;;
16667;SDS011;8447;52.630;4.734;2022-11-24T09:52:42;12.13;;;2.00;;
16667;SDS011;8447;52.630;4.734;2022-11-24T09:55:18;13.20;;;2.57;;
16667;SDS011;8447;52.630;4.734;2022-11-24T09:57:46;17.23;;;2.77;;
16667;SDS011;8447;52.630;4.734;2022-11-24T10:00:16;11.50;;;2.10;;
16667;SDS011;8447;52.630;4.734;2022-11-24T10:02:42;15.07;;;4.37;;
16667;SDS011;8447;52.630;4.734;2022-11-24T10:05:10;15.03;;;3.70;;
16667;SDS011;8447;52.630;4.734;2022-11-24T10:07:40;10.60;;;2.67;;
16667;SDS011;8447;52.630;4.734;2022-11-24T10:10:10;13.03;;;2.80;;
16667;SDS011;8447;52.630;4.734;2022-11-24T10:12:44;11.90;;;3.30;;
16667;SDS011;8447;52.630;4.734;2022-11-24T10:15:16;12.47;;;2.57;;
16667;SDS011;8447;52.630;4.734;2022-11-24T10:20:41;10.70;;;2.63;;
16667;SDS011;8447;52.630;4.734;2022-11-24T10:23:15;11.50;;;2.60;;
16667;SDS011;8447;52.630;4.734;2022-11-24T10:25:49;14.33;;;2.27;;
16667;SDS011;8447;52.630;4.734;2022-11-24T10:28:16;11.73;;;2.30;;
16667;SDS011;8447;52.630;4.734;2022-11-24T10:30:42;13.03;;;2.43;;
16667;SDS011;8447;52.630;4.734;2022-11-24T10:33:12;12.73;;;2.50;;
16667;SDS011;8447;52.630;4.734;2022-11-24T10:35:40;16.17;;;2.50;;
16667;SDS011;8447;52.630;4.734;2022-11-24T10:38:13;15.77;;;2.43;;
16667;SDS011;8447;52.630;4.734;2022-11-24T10:40:41;9.90;;;2.13;;
16667;SDS011;8447;52.630;4.734;2022-11-24T10:43:11;14.03;;;1.63;;
16667;SDS011;8447;52.630;4.734;2022-11-24T10:45:38;14.83;;;2.43;;
16667;SDS011;8447;52.630;4.734;2022-11-24T10:48:05;11.67;;;2.20;;
16667;SDS011;8447;52.630;4.734;2022-11-24T10:50:34;15.00;;;2.73;;
16667;SDS011;8447;52.630;4.734;2022-11-24T10:53:03;10.47;;;2.30;;
16667;SDS011;8447;52.630;4.734;2022-11-24T10:58:14;15.17;;;2.20;;
16667;SDS011;8447;52.630;4.734;2022-11-24T11:00:41;12.83;;;2.20;;
16667;SDS011;8447;52.630;4.734;2022-11-24T11:03:14;11.33;;;2.23;;
16667;SDS011;8447;52.630;4.734;2022-11-24T11:05:41;10.43;;;2.30;;
16667;SDS011;8447;52.630;4.734;2022-11-24T11:08:13;10.10;;;2.27;;
16667;SDS011;8447;52.630;4.734;2022-11-24T11:10:41;9.80;;;2.20;;
16667;SDS011;8447;52.630;4.734;2022-11-24T11:13:22;14.13;;;2.30;;
16667;SDS011;8447;52.630;4.734;2022-11-24T11:15:49;13.57;;;2.60;;
16667;SDS011;8447;52.630;4.734;2022-11-24T11:18:16;13.93;;;2.50;;
16667;SDS011;8447;52.630;4.734;2022-11-24T11:20:48;14.43;;;2.57;;
16667;SDS011;8447;52.630;4.734;2022-11-24T11:23:15;11.97;;;2.13;;
16667;SDS011;8447;52.630;4.734;2022-11-24T11:25:44;12.83;;;2.70;;
16667;SDS011;8447;52.630;4.734;2022-11-24T11:31:00;17.27;;;1.73;;
16667;SDS011;8447;52.630;4.734;2022-11-24T11:33:27;16.17;;;2.43;;
16667;SDS011;8447;52.630;4.734;2022-11-24T11:35:54;12.40;;;2.03;;
16667;SDS011;8447;52.630;4.734;2022-11-24T11:38:21;16.13;;;2.50;;
16667;SDS011;8447;52.630;4.734;2022-11-24T11:40:48;14.50;;;2.37;;
16667;SDS011;8447;52.630;4.734;2022-11-24T11:43:18;15.47;;;2.67;;
16667;SDS011;8447;52.630;4.734;2022-11-24T11:45:48;11.93;;;2.33;;
16667;SDS011;8447;52.630;4.734;2022-11-24T11:48:20;17.10;;;2.30;;
16667;SDS011;8447;52.630;4.734;2022-11-24T11:50:51;13.83;;;2.37;;
16667;SDS011;8447;52.630;4.734;2022-11-24T11:53:20;12.33;;;2.23;;
16667;SDS011;8447;52.630;4.734;2022-11-24T11:55:57;10.80;;;2.53;;
16667;SDS011;8447;52.630;4.734;2022-11-24T11:58:34;7.90;;;1.80;;
16667;SDS011;8447;52.630;4.734;2022-11-24T12:01:04;14.03;;;2.53;;
16667;SDS011;8447;52.630;4.734;2022-11-24T12:03:57;20.70;;;3.00;;
16667;SDS011;8447;52.630;4.734;2022-11-24T12:06:33;14.97;;;2.47;;
16667;SDS011;8447;52.630;4.734;2022-11-24T12:09:01;12.23;;;2.43;;
16667;SDS011;8447;52.630;4.734;2022-11-24T12:11:33;12.97;;;2.47;;
16667;SDS011;8447;52.630;4.734;2022-11-24T12:14:05;11.63;;;2.40;;
16667;SDS011;8447;52.630;4.734;2022-11-24T12:16:38;14.10;;;2.10;;
16667;SDS011;8447;52.630;4.734;2022-11-24T12:19:18;13.13;;;1.90;;
16667;SDS011;8447;52.630;4.734;2022-11-24T12:21:50;13.70;;;2.10;;
16667;SDS011;8447;52.630;4.734;2022-11-24T12:24:20;8.13;;;2.07;;
16667;SDS011;8447;52.630;4.734;2022-11-24T12:26:49;13.07;;;2.43;;
16667;SDS011;8447;52.630;4.734;2022-11-24T12:29:25;18.07;;;3.67;;
16667;SDS011;8447;52.630;4.734;2022-11-24T12:31:56;13.37;;;2.10;;
16667;SDS011;8447;52.630;4.734;2022-11-24T12:34:31;12.60;;;2.13;;
16667;SDS011;8447;52.630;4.734;2022-11-24T12:37:10;14.77;;;2.33;;
16667;SDS011;8447;52.630;4.734;2022-11-24T12:39:42;9.97;;;2.20;;
16667;SDS011;8447;52.630;4.734;2022-11-24T12:42:11;10.00;;;1.90;;
16667;SDS011;8447;52.630;4.734;2022-11-24T12:44:51;13.60;;;3.30;;
16667;SDS011;8447;52.630;4.734;2022-11-24T12:47:21;15.60;;;2.43;;
16667;SDS011;8447;52.630;4.734;2022-11-24T12:49:55;11.67;;;2.87;;
16667;SDS011;8447;52.630;4.734;2022-11-24T12:52:24;12.37;;;2.60;;
16667;SDS011;8447;52.630;4.734;2022-11-24T12:54:51;13.63;;;2.30;;
16667;SDS011;8447;52.630;4.734;2022-11-24T12:57:19;14.37;;;2.80;;
16667;SDS011;8447;52.630;4.734;2022-11-24T12:59:50;17.70;;;3.17;;
16667;SDS011;8447;52.630;4.734;2022-11-24T13:02:21;13.17;;;2.80;;
16667;SDS011;8447;52.630;4.734;2022-11-24T13:04:52;10.83;;;2.20;;
16667;SDS011;8447;52.630;4.734;2022-11-24T13:07:23;14.07;;;2.03;;
16667;SDS011;8447;52.630;4.734;2022-11-24T13:12:51;9.13;;;2.63;;
16667;SDS011;8447;52.630;4.734;2022-11-24T13:15:17;9.87;;;2.40;;
16667;SDS011;8447;52.630;4.734;2022-11-24T13:17:44;14.43;;;2.97;;
16667;SDS011;8447;52.630;4.734;2022-11-24T13:20:14;15.57;;;2.40;;
16667;SDS011;8447;52.630;4.734;2022-11-24T13:22:46;11.43;;;2.10;;
16667;SDS011;8447;52.630;4.734;2022-11-24T13:25:15;15.23;;;2.57;;
16667;SDS011;8447;52.630;4.734;2022-11-24T13:27:43;12.03;;;2.67;;
16667;SDS011;8447;52.630;4.734;2022-11-24T13:32:58;12.33;;;2.73;;
16667;SDS011;8447;52.630;4.734;2022-11-24T13:35:25;13.00;;;2.53;;
16667;SDS011;8447;52.630;4.734;2022-11-24T13:37:53;15.33;;;2.40;;
16667;SDS011;8447;52.630;4.734;2022-11-24T13:40:36;21.07;;;2.67;;
16667;SDS011;8447;52.630;4.734;2022-11-24T13:43:18;6.97;;;1.53;;
16667;SDS011;8447;52.630;4.734;2022-11-24T13:45:48;12.33;;;2.53;;
16667;SDS011;8447;52.630;4.734;2022-11-24T13:51:16;7.27;;;2.13;;
16667;SDS011;8447;52.630;4.734;2022-11-24T13:53:48;12.13;;;2.10;;
16667;SDS011;8447;52.630;4.734;2022-11-24T13:56:20;11.57;;;2.40;;
16667;SDS011;8447;52.630;4.734;2022-11-24T13:58:47;11.33;;;2.57;;
16667;SDS011;8447;52.630;4.734;2022-11-24T14:01:16;14.87;;;2.70;;
16667;SDS011;8447;52.630;4.734;2022-11-24T14:06:27;8.53;;;2.30;;
16667;SDS011;8447;52.630;4.734;2022-11-24T14:08:55;13.10;;;2.53;;
16667;SDS011;8447;52.630;4.734;2022-11-24T14:11:22;9.50;;;2.33;;
16667;SDS011;8447;52.630;4.734;2022-11-24T14:13:50;10.57;;;2.43;;
16667;SDS011;8447;52.630;4.734;2022-11-24T14:16:16;9.37;;;2.20;;
16667;SDS011;8447;52.630;4.734;2022-11-24T14:18:44;6.70;;;2.00;;
16667;SDS011;8447;52.630;4.734;2022-11-24T14:21:14;14.57;;;2.30;;
16667;SDS011;8447;52.630;4.734;2022-11-24T14:23:43;8.97;;;1.83;;
16667;SDS011;8447;52.630;4.734;2022-11-24T14:26:15;11.80;;;2.83;;
16667;SDS011;8447;52.630;4.734;2022-11-24T14:28:43;13.57;;;2.37;;
16667;SDS011;8447;52.630;4.734;2022-11-24T14:31:15;9.03;;;2.20;;
16667;SDS011;8447;52.630;4.734;2022-11-24T14:33:42;7.07;;;2.17;;
16667;SDS011;8447;52.630;4.734;2022-11-24T14:36:12;9.17;;;2.17;;
16667;SDS011;8447;52.630;4.734;2022-11-24T14:38:38;6.33;;;2.10;;
16667;SDS011;8447;52.630;4.734;2022-11-24T14:41:12;10.93;;;2.20;;
16667;SDS011;8447;52.630;4.734;2022-11-24T14:43:40;17.00;;;2.50;;
16667;SDS011;8447;52.630;4.734;2022-11-24T14:46:07;9.40;;;2.30;;
16667;SDS011;8447;52.630;4.734;2022-11-24T14:48:36;17.10;;;2.37;;
16667;SDS011;8447;52.630;4.734;2022-11-24T14:51:04;10.73;;;2.37;;
16667;SDS011;8447;52.630;4.734;2022-11-24T14:53:31;14.50;;;2.17;;
16667;SDS011;8447;52.630;4.734;2022-11-24T14:56:08;12.10;;;2.80;;
16667;SDS011;8447;52.630;4.734;2022-11-24T14:58:35;7.87;;;2.50;;
16667;SDS011;8447;52.630;4.734;2022-11-24T15:01:15;10.00;;;2.40;;
16667;SDS011;8447;52.630;4.734;2022-11-24T15:03:43;12.23;;;1.97;;
16667;SDS011;8447;52.630;4.734;2022-11-24T15:06:10;10.37;;;2.60;;
16667;SDS011;8447;52.630;4.734;2022-11-24T15:08:41;9.27;;;2.20;;
16667;SDS011;8447;52.630;4.734;2022-11-24T15:11:10;8.93;;;2.03;;
16667;SDS011;8447;52.630;4.734;2022-11-24T15:13:37;10.33;;;2.23;;
16667;SDS011;8447;52.630;4.734;2022-11-24T15:16:04;6.73;;;1.93;;
16667;SDS011;8447;52.630;4.734;2022-11-24T15:18:34;7.83;;;2.20;;
16667;SDS011;8447;52.630;4.734;2022-11-24T15:21:01;12.83;;;2.30;;